Time;durP1;ratioP1;P1;durP2;ratioP2;P2;SDS_P1;SDS_P2;PMS_P1;PMS_P2;Temp;Humidity;BMP_temperature;BMP_pressure;BME280_temperature;BME280_humidity;BME280_pressure;Samples;Min_cycle;Max_cycle;Signal;HPM_P1;HPM_P2
2024/02/15 00:02:26;;;;;;;3.45;2.40;;;13.20;99.90;;;;;;10097359;28;20431;-65
2024/02/15 00:07:17;;;;;;;4.32;2.65;;;13.10;99.90;;;;;;10097211;28;20029;-65
2024/02/15 00:12:08;;;;;;;4.03;2.30;;;13.10;99.90;;;;;;10096798;28;20076;-63
2024/02/15 00:16:58;;;;;;;7.90;2.50;;;13.10;99.90;;;;;;10096187;28;20092;-64
2024/02/15 00:21:49;;;;;;;6.68;2.33;;;13.10;99.90;;;;;;10078367;28;20021;-63
2024/02/15 00:26:40;;;;;;;5.22;2.53;;;13.10;99.90;;;;;;10095797;28;20060;-64
2024/02/15 00:31:30;;;;;;;3.53;1.88;;;13.00;99.90;;;;;;10094664;28;20037;-64
2024/02/15 00:36:21;;;;;;;2.38;1.85;;;13.00;99.90;;;;;;10097589;28;20482;-63
2024/02/15 00:41:12;;;;;;;2.95;1.70;;;13.00;99.90;;;;;;10096138;28;20025;-64
2024/02/15 00:46:03;;;;;;;3.28;2.13;;;12.90;99.90;;;;;;10098061;28;20025;-64
2024/02/15 00:50:54;;;;;;;3.20;2.10;;;12.90;99.90;;;;;;10096799;28;20029;-63
2024/02/15 00:55:44;;;;;;;5.10;2.88;;;12.90;99.90;;;;;;10077957;28;20394;-64
2024/02/15 01:00:35;;;;;;;5.10;2.08;;;12.80;99.90;;;;;;10097221;28;20025;-64
2024/02/15 01:05:26;;;;;;;5.30;2.50;;;12.70;99.90;;;;;;10095886;28;20021;-64
2024/02/15 01:10:17;;;;;;;2.88;1.88;;;12.70;99.90;;;;;;10093996;28;20040;-64
2024/02/15 01:15:08;;;;;;;2.45;1.58;;;12.70;99.90;;;;;;10093636;28;20548;-64
2024/02/15 01:19:59;;;;;;;4.63;2.35;;;12.60;99.90;;;;;;10090162;28;20017;-64
2024/02/15 01:24:49;;;;;;;3.00;1.98;;;12.60;99.90;;;;;;10098964;28;20033;-64
2024/02/15 01:29:42;;;;;;;4.53;2.28;;;12.60;99.90;;;;;;10079467;28;20115;-64
2024/02/15 01:34:33;;;;;;;1.85;1.60;;;12.50;99.90;;;;;;10085271;28;20446;-65
2024/02/15 01:39:23;;;;;;;4.93;1.70;;;12.50;99.90;;;;;;10102715;28;20342;-67
2024/02/15 01:44:14;;;;;;;4.15;2.28;;;12.40;99.90;;;;;;10102325;28;20029;-67
2024/02/15 01:49:07;;;;;;;3.95;2.15;;;12.40;99.90;;;;;;10102597;28;20028;-69
2024/02/15 01:54:01;;;;;;;3.97;1.92;;;12.50;99.90;;;;;;10102103;28;20044;-70
2024/02/15 01:58:52;;;;;;;2.58;1.88;;;12.40;99.90;;;;;;10102481;28;20076;-70
2024/02/15 02:03:44;;;;;;;4.07;2.10;;;12.40;99.90;;;;;;10102422;28;20027;-68
2024/02/15 02:08:34;;;;;;;6.55;1.80;;;12.50;99.90;;;;;;10101591;28;20087;-69
2024/02/15 02:13:26;;;;;;;4.63;1.95;;;12.40;99.90;;;;;;10085217;28;20562;-66
2024/02/15 02:18:16;;;;;;;4.80;2.58;;;12.40;99.90;;;;;;10084013;28;20086;-68
2024/02/15 02:23:07;;;;;;;5.95;2.17;;;12.40;99.90;;;;;;10101140;28;20052;-67
2024/02/15 02:27:59;;;;;;;4.20;2.65;;;12.30;99.90;;;;;;10099854;28;20036;-67
2024/02/15 02:32:49;;;;;;;3.20;1.73;;;12.30;99.90;;;;;;10100986;28;20513;-66
2024/02/15 02:37:40;;;;;;;4.82;2.25;;;12.30;99.90;;;;;;10101292;28;20044;-68
2024/02/15 02:42:31;;;;;;;3.53;2.10;;;12.30;99.90;;;;;;10100303;28;20029;-68
2024/02/15 02:47:21;;;;;;;3.13;2.10;;;12.20;99.90;;;;;;10102104;28;20032;-64
2024/02/15 02:52:12;;;;;;;5.00;2.90;;;12.20;99.90;;;;;;10105286;28;20041;-68
2024/02/15 02:57:06;;;;;;;4.72;2.25;;;12.20;99.90;;;;;;10101460;28;20108;-69
2024/02/15 03:01:57;;;;;;;5.05;2.50;;;12.20;99.90;;;;;;10099544;28;20021;-68
2024/02/15 03:06:47;;;;;;;4.88;2.65;;;12.20;99.90;;;;;;10100782;28;20033;-64
2024/02/15 03:11:38;;;;;;;6.13;2.33;;;12.10;99.90;;;;;;10099244;28;20112;-68
2024/02/15 03:16:29;;;;;;;6.07;2.70;;;12.10;99.90;;;;;;10099613;28;20021;-64
2024/02/15 03:21:20;;;;;;;5.30;2.47;;;12.10;99.90;;;;;;10098777;28;20035;-65
2024/02/15 03:26:11;;;;;;;3.08;2.45;;;12.10;99.90;;;;;;10098930;28;20055;-66
2024/02/15 03:31:02;;;;;;;3.70;2.30;;;12.10;99.90;;;;;;10102576;28;20041;-67
2024/02/15 03:35:53;;;;;;;5.85;2.72;;;12.00;99.90;;;;;;10096613;28;20030;-67
2024/02/15 03:40:45;;;;;;;3.88;2.40;;;12.00;99.90;;;;;;10098306;28;20053;-64
2024/02/15 03:45:35;;;;;;;3.88;2.78;;;12.00;99.90;;;;;;10099274;28;20553;-64
2024/02/15 03:50:26;;;;;;;2.95;2.28;;;11.90;99.90;;;;;;10096339;28;20029;-66
2024/02/15 03:55:17;;;;;;;5.90;2.72;;;11.90;99.90;;;;;;10079277;28;20043;-66
2024/02/15 04:00:10;;;;;;;5.15;2.88;;;11.80;99.90;;;;;;10097946;28;20175;-63
2024/02/15 04:05:01;;;;;;;6.82;3.22;;;11.80;99.90;;;;;;10089977;28;20789;-68
2024/02/15 04:09:51;;;;;;;6.60;2.97;;;11.80;99.90;;;;;;10094938;28;20028;-64
2024/02/15 04:14:45;;;;;;;4.07;3.03;;;11.80;99.90;;;;;;10095821;28;20099;-64
2024/02/15 04:19:36;;;;;;;6.13;2.83;;;11.70;99.90;;;;;;10079242;28;20029;-66
2024/02/15 04:24:27;;;;;;;4.72;3.38;;;11.80;99.90;;;;;;10097218;28;20025;-64
2024/02/15 04:29:20;;;;;;;5.10;3.28;;;11.70;99.90;;;;;;10101058;28;20049;-66
2024/02/15 04:34:11;;;;;;;5.28;2.53;;;11.70;99.90;;;;;;10077304;28;20040;-64
2024/02/15 04:39:04;;;;;;;6.53;3.30;;;11.70;99.90;;;;;;10097313;28;20510;-63
2024/02/15 04:43:55;;;;;;;6.40;3.03;;;11.70;99.90;;;;;;10091250;28;20100;-63
2024/02/15 04:48:45;;;;;;;4.65;3.15;;;11.70;99.90;;;;;;10095809;28;20113;-65
2024/02/15 04:53:38;;;;;;;5.93;3.65;;;11.70;99.90;;;;;;10096013;28;20045;-65
2024/02/15 04:58:28;;;;;;;7.85;3.85;;;11.60;99.90;;;;;;10095985;28;20596;-62
2024/02/15 05:03:19;;;;;;;5.50;3.28;;;11.70;99.90;;;;;;10097940;28;20083;-62
2024/02/15 05:08:10;;;;;;;3.35;2.58;;;11.60;99.90;;;;;;10089955;28;20036;-62
2024/02/15 05:13:01;;;;;;;7.15;3.85;;;11.60;99.90;;;;;;10084137;28;20043;-64
2024/02/15 05:17:52;;;;;;;5.90;2.92;;;11.60;99.90;;;;;;10103543;28;20402;-63
2024/02/15 05:22:46;;;;;;;5.72;2.97;;;11.50;99.90;;;;;;10105072;28;20470;-63
2024/02/15 05:27:36;;;;;;;6.47;2.88;;;11.50;99.90;;;;;;10107343;28;20053;-64
2024/02/15 05:32:27;;;;;;;6.53;2.88;;;11.60;99.90;;;;;;10095244;28;20049;-65
2024/02/15 05:37:17;;;;;;;5.72;3.25;;;11.60;99.90;;;;;;10103206;28;20506;-64
2024/02/15 05:42:10;;;;;;;3.88;2.28;;;11.50;99.90;;;;;;10102917;28;20033;-65
2024/02/15 05:47:00;;;;;;;3.03;2.22;;;11.50;99.90;;;;;;10103574;28;20052;-64
2024/02/15 05:51:53;;;;;;;4.82;2.60;;;11.40;99.90;;;;;;10084878;28;20664;-64
2024/02/15 05:56:44;;;;;;;4.75;2.70;;;11.40;99.90;;;;;;10091103;28;20448;-63
2024/02/15 06:01:34;;;;;;;4.05;2.58;;;11.40;99.90;;;;;;10102323;28;20041;-63
2024/02/15 06:06:26;;;;;;;5.00;2.60;;;11.40;99.90;;;;;;10102071;28;20040;-66
2024/02/15 06:11:20;;;;;;;7.90;2.60;;;11.40;99.90;;;;;;10098598;28;20026;-64
2024/02/15 06:16:11;;;;;;;4.90;2.67;;;11.40;99.90;;;;;;10096801;28;20021;-67
2024/02/15 06:21:02;;;;;;;2.85;2.13;;;11.30;99.90;;;;;;10101478;28;20029;-69
2024/02/15 06:25:54;;;;;;;2.45;1.73;;;11.40;99.90;;;;;;10100057;28;20151;-67
2024/02/15 06:41:05;;;;;;;4.25;2.20;;;11.30;99.90;;;;;;10100765;28;20047;-68
2024/02/15 06:45:56;;;;;;;3.00;1.92;;;11.30;99.90;;;;;;10100645;28;20663;-65
2024/02/15 06:50:50;;;;;;;4.35;2.38;;;11.30;99.90;;;;;;10105791;28;20025;-67
2024/02/15 06:55:40;;;;;;;5.13;2.67;;;11.30;99.90;;;;;;10096792;28;20049;-63
2024/02/15 07:00:32;;;;;;;5.03;2.10;;;11.30;99.90;;;;;;10095904;28;20049;-65
2024/02/15 07:05:23;;;;;;;5.32;2.80;;;11.30;99.90;;;;;;10064195;28;20087;-68
2024/02/15 07:10:16;;;;;;;5.05;2.65;;;11.30;99.90;;;;;;10083525;28;20039;-68
2024/02/15 07:15:08;;;;;;;7.78;2.72;;;11.30;99.90;;;;;;10087920;28;20394;-68
2024/02/15 07:19:59;;;;;;;7.72;3.22;;;11.40;99.90;;;;;;10081919;28;20026;-69
2024/02/15 07:24:50;;;;;;;4.53;2.28;;;11.40;99.90;;;;;;10086682;28;20033;-68
2024/02/15 07:29:40;;;;;;;3.03;2.17;;;11.40;99.90;;;;;;10089051;28;20399;-64
2024/02/15 07:34:32;;;;;;;4.60;2.83;;;11.40;99.90;;;;;;10086027;28;20518;-64
2024/02/15 07:39:24;;;;;;;4.07;2.33;;;11.40;99.90;;;;;;10090229;28;20406;-65
2024/02/15 07:44:16;;;;;;;4.43;2.47;;;11.50;99.90;;;;;;10074856;28;20034;-69
2024/02/15 07:49:08;;;;;;;4.95;2.55;;;11.40;99.90;;;;;;10083947;28;20620;-70
2024/02/15 07:53:58;;;;;;;4.57;2.50;;;11.40;99.90;;;;;;10084712;28;20636;-66
2024/02/15 07:58:51;;;;;;;6.32;3.15;;;11.40;99.90;;;;;;10087082;28;20112;-70
2024/02/15 08:03:45;;;;;;;4.55;2.53;;;11.40;99.90;;;;;;10088603;28;20040;-69
2024/02/15 08:08:35;;;;;;;5.93;2.83;;;11.50;99.90;;;;;;10095867;28;20025;-69
2024/02/15 08:13:29;;;;;;;4.78;2.67;;;11.50;99.90;;;;;;10096666;28;20040;-70
2024/02/15 08:18:20;;;;;;;5.97;2.60;;;11.60;99.90;;;;;;10095778;28;20067;-68
2024/02/15 08:23:10;;;;;;;9.57;3.13;;;11.60;99.90;;;;;;10096812;28;20024;-67
2024/02/15 08:28:05;;;;;;;4.60;2.58;;;11.70;99.90;;;;;;10100229;28;20489;-64
2024/02/15 08:32:55;;;;;;;4.22;2.85;;;11.70;99.90;;;;;;10096797;28;20222;-64
2024/02/15 08:37:48;;;;;;;4.57;2.78;;;11.80;99.90;;;;;;10095790;28;20163;-64
2024/02/15 08:42:42;;;;;;;4.32;2.65;;;11.90;99.90;;;;;;10077980;28;20029;-67
2024/02/15 08:47:33;;;;;;;5.03;2.75;;;11.90;99.90;;;;;;10095142;28;20123;-66
2024/02/15 08:52:24;;;;;;;3.95;2.70;;;12.00;99.90;;;;;;10095459;28;20124;-63
2024/02/15 08:57:15;;;;;;;6.53;2.92;;;12.00;99.90;;;;;;10095470;28;20621;-67
2024/02/15 09:02:05;;;;;;;4.80;2.80;;;12.00;99.90;;;;;;10094711;28;20025;-63
2024/02/15 09:06:56;;;;;;;6.07;2.58;;;12.10;99.90;;;;;;10095336;28;20041;-65
2024/02/15 09:11:47;;;;;;;6.35;2.22;;;12.20;99.90;;;;;;10095176;28;20433;-64
2024/02/15 09:16:39;;;;;;;3.60;1.90;;;12.20;99.90;;;;;;10093479;28;20494;-64
2024/02/15 09:21:29;;;;;;;2.35;1.90;;;12.30;99.90;;;;;;10094692;28;20033;-66
2024/02/15 09:26:20;;;;;;;4.05;1.92;;;12.30;99.90;;;;;;10094794;28;20049;-63
2024/02/15 09:31:13;;;;;;;5.05;1.90;;;12.40;99.90;;;;;;10093264;28;20067;-64
2024/02/15 09:36:04;;;;;;;2.08;1.63;;;12.40;99.90;;;;;;10081794;28;20041;-65
2024/02/15 09:40:55;;;;;;;3.83;2.40;;;12.50;99.90;;;;;;10092583;28;20032;-65
2024/02/15 09:45:47;;;;;;;2.78;1.40;;;12.50;99.90;;;;;;10097950;28;20423;-65
2024/02/15 09:50:42;;;;;;;2.10;1.38;;;12.60;99.90;;;;;;10097153;28;20024;-66
2024/02/15 09:55:34;;;;;;;3.88;1.90;;;12.70;99.90;;;;;;10096033;28;20045;-66
2024/02/15 10:00:25;;;;;;;3.03;1.50;;;12.70;99.90;;;;;;10101304;28;20025;-68
2024/02/15 10:05:17;;;;;;;2.65;1.35;;;12.80;99.90;;;;;;10101264;28;20616;-64
2024/02/15 10:10:21;;;;;;;4.10;1.70;;;12.80;99.90;;;;;;10100101;28;20104;-65
2024/02/15 10:15:31;;;;;;;2.53;1.70;;;12.90;99.90;;;;;;10100963;28;20509;-67
2024/02/15 10:20:22;;;;;;;5.93;1.67;;;12.90;99.90;;;;;;10100801;28;20029;-66
2024/02/15 10:25:14;;;;;;;4.03;1.52;;;13.00;99.90;;;;;;10101025;28;20032;-70
2024/02/15 10:30:19;;;;;;;3.75;2.15;;;13.00;99.90;;;;;;10101004;28;20028;-69
2024/02/15 10:35:15;;;;;;;4.03;1.77;;;13.10;99.90;;;;;;10100505;28;20032;-68
2024/02/15 10:40:07;;;;;;;3.42;1.63;;;13.10;99.90;;;;;;10099088;28;20102;-68
2024/02/15 10:44:58;;;;;;;5.05;1.55;;;13.20;99.90;;;;;;10100052;28;20029;-70
2024/02/15 10:49:49;;;;;;;3.63;2.10;;;13.20;99.90;;;;;;10103050;28;20029;-67
2024/02/15 10:54:58;;;;;;;4.15;1.63;;;13.20;99.90;;;;;;10099153;28;20033;-68
2024/02/15 10:59:57;;;;;;;2.85;1.30;;;13.30;99.90;;;;;;10094212;28;20029;-64
2024/02/15 11:04:53;;;;;;;3.72;1.60;;;13.30;99.90;;;;;;10095378;28;20033;-65
2024/02/15 11:09:44;;;;;;;3.33;1.63;;;13.30;99.90;;;;;;10096258;28;20033;-64
2024/02/15 11:14:35;;;;;;;3.38;1.63;;;13.40;99.90;;;;;;10090302;28;20044;-65
2024/02/15 11:19:32;;;;;;;2.20;1.77;;;13.50;99.90;;;;;;10098399;28;20032;-62
2024/02/15 11:24:32;;;;;;;3.38;2.00;;;13.60;99.90;;;;;;10098579;28;20037;-70
2024/02/15 11:29:47;;;;;;;3.65;1.70;;;13.60;99.90;;;;;;10098145;28;20095;-62
2024/02/15 11:34:48;;;;;;;2.97;1.35;;;13.70;99.90;;;;;;10097145;28;20037;-64
2024/02/15 11:39:42;;;;;;;3.22;1.70;;;13.80;99.90;;;;;;10097486;28;20029;-67
2024/02/15 11:44:33;;;;;;;4.22;1.83;;;13.80;99.90;;;;;;10098774;28;20029;-69
2024/02/15 11:49:24;;;;;;;4.10;2.55;;;13.80;99.90;;;;;;10097775;28;20033;-68
2024/02/15 11:54:20;;;;;;;5.30;1.73;;;13.80;99.90;;;;;;10097925;28;20748;-67
2024/02/15 11:59:18;;;;;;;2.90;1.75;;;13.80;99.90;;;;;;10094139;28;20017;-66
2024/02/15 12:19:37;;;;;;;33.28;18.63;;;14.00;99.90;;;;;;10082122;28;20025;-66
2024/02/15 12:24:28;;;;;;;7.25;4.80;;;14.10;99.90;;;;;;10083957;28;20572;-67
2024/02/15 12:29:19;;;;;;;5.38;3.05;;;14.00;99.90;;;;;;10095133;28;20480;-65
2024/02/15 12:34:10;;;;;;;8.18;2.75;;;14.10;99.90;;;;;;10091371;28;20076;-69
2024/02/15 12:39:10;;;;;;;240.05;125.25;;;14.20;99.90;;;;;;10082620;28;20041;-65
2024/02/15 12:44:02;;;;;;;64.60;35.97;;;14.20;99.90;;;;;;10083394;28;20610;-66
2024/02/15 12:49:07;;;;;;;12.30;6.22;;;14.30;99.90;;;;;;10080503;28;20132;-67
2024/02/15 12:54:09;;;;;;;7.83;4.00;;;14.30;99.90;;;;;;10092352;28;20348;-65
2024/02/15 12:59:00;;;;;;;5.97;3.35;;;14.40;99.90;;;;;;10065861;28;20029;-63
2024/02/15 13:03:51;;;;;;;4.40;2.60;;;14.40;99.90;;;;;;10089067;28;20120;-65
2024/02/15 13:08:44;;;;;;;7.25;3.25;;;14.50;99.90;;;;;;10077892;28;20159;-65
2024/02/15 13:13:35;;;;;;;4.18;2.47;;;14.50;99.90;;;;;;10076396;28;20048;-67
2024/02/15 13:18:28;;;;;;;186.63;97.03;;;14.50;99.90;;;;;;10099636;28;20018;-66
2024/02/15 13:23:22;;;;;;;233.18;117.20;;;14.50;99.90;;;;;;10085301;28;20037;-68
2024/02/15 13:28:12;;;;;;;32.75;20.90;;;14.60;99.90;;;;;;10095099;28;20087;-68
2024/02/15 13:33:04;;;;;;;11.05;4.82;;;14.60;99.90;;;;;;10087061;28;20751;-68
2024/02/15 13:37:57;;;;;;;6.60;3.80;;;14.70;99.90;;;;;;10078470;28;20036;-71
2024/02/15 13:43:22;;;;;;;4.07;2.70;;;14.70;99.90;;;;;;10102351;28;20040;-67
2024/02/15 13:48:10;;;;;;;4.65;3.10;;;14.80;99.90;;;;;;10098257;28;20032;-67
2024/02/15 13:53:01;;;;;;;6.07;2.00;;;14.70;99.90;;;;;;10107009;28;20109;-67
2024/02/15 13:57:53;;;;;;;3.72;1.92;;;14.80;99.90;;;;;;10101821;28;20056;-67
2024/02/15 14:02:44;;;;;;;2.92;1.65;;;14.80;99.90;;;;;;10077659;28;20044;-67
2024/02/15 14:07:38;;;;;;;2.40;1.33;;;14.80;99.90;;;;;;10105405;28;20414;-68
2024/02/15 14:12:29;;;;;;;3.65;1.63;;;14.80;99.90;;;;;;10101690;28;20053;-68
2024/02/15 14:17:20;;;;;;;4.80;1.60;;;14.90;99.90;;;;;;10082783;28;20021;-66
2024/02/15 14:22:15;;;;;;;3.50;1.05;;;14.90;99.90;;;;;;10083314;28;20037;-66
2024/02/15 14:27:06;;;;;;;1.83;0.98;;;14.90;99.90;;;;;;10083012;28;20079;-68
2024/02/15 14:37:10;;;;;;;71.97;40.08;;;14.90;99.90;;;;;;10053024;28;20040;-66
2024/02/15 14:42:01;;;;;;;12.48;7.40;;;14.90;99.90;;;;;;10089981;28;20537;-66
2024/02/15 14:46:53;;;;;;;4.75;2.40;;;14.90;99.90;;;;;;10094090;28;20025;-65
2024/02/15 14:51:44;;;;;;;5.22;2.65;;;14.90;99.90;;;;;;10090950;28;20032;-65
2024/02/15 14:56:34;;;;;;;4.50;1.75;;;14.80;99.90;;;;;;10072494;28;20040;-66
2024/02/15 15:01:26;;;;;;;2.65;1.92;;;14.80;99.90;;;;;;10089948;28;20029;-66
2024/02/15 15:16:35;;;;;;;3.20;1.30;;;14.80;99.90;;;;;;10096538;28;20047;-65
2024/02/15 15:21:27;;;;;;;1.65;1.52;;;14.70;99.90;;;;;;10091446;28;20288;-65
2024/02/15 15:26:22;;;;;;;2.83;1.35;;;14.70;99.90;;;;;;10104387;28;20263;-66
2024/02/15 15:31:13;;;;;;;5.68;1.25;;;14.80;99.90;;;;;;10112295;28;20037;-65
2024/02/15 15:36:04;;;;;;;3.78;1.50;;;14.80;99.90;;;;;;10117332;28;20037;-66
2024/02/15 15:40:55;;;;;;;2.97;1.25;;;14.80;99.90;;;;;;10108983;28;20036;-66
2024/02/15 15:45:47;;;;;;;2.92;2.05;;;14.80;99.90;;;;;;10097798;28;20037;-65
2024/02/15 15:50:40;;;;;;;3.20;1.30;;;14.80;99.90;;;;;;10097125;28;20449;-65
2024/02/15 15:55:35;;;;;;;3.72;1.17;;;14.80;99.90;;;;;;10101694;28;20029;-65
2024/02/15 16:00:26;;;;;;;2.08;1.15;;;14.80;99.90;;;;;;10088593;28;20191;-64
2024/02/15 16:05:17;;;;;;;2.85;2.22;;;14.80;99.90;;;;;;10096726;28;20024;-65
2024/02/15 16:10:11;;;;;;;2.95;1.70;;;14.80;99.90;;;;;;10093022;28;20028;-67
2024/02/15 16:15:05;;;;;;;3.08;1.52;;;14.70;99.90;;;;;;10096893;28;20095;-65
2024/02/15 16:19:57;;;;;;;3.90;1.88;;;14.80;99.90;;;;;;10096353;28;20028;-66
2024/02/15 16:24:47;;;;;;;5.28;2.00;;;14.70;99.90;;;;;;10096941;28;20044;-66
2024/02/15 16:29:38;;;;;;;3.13;1.98;;;14.70;99.90;;;;;;10094861;28;20056;-65
2024/02/15 16:34:29;;;;;;;3.25;1.92;;;14.70;99.90;;;;;;10096373;28;20509;-68
2024/02/15 16:39:20;;;;;;;3.30;1.73;;;14.70;99.90;;;;;;10095649;28;20474;-65
2024/02/15 16:44:11;;;;;;;4.25;2.03;;;14.70;99.90;;;;;;10090682;28;20029;-67
2024/02/15 16:49:01;;;;;;;5.53;1.88;;;14.70;99.90;;;;;;10095782;28;20025;-65
2024/02/15 16:53:55;;;;;;;2.95;1.65;;;14.70;99.90;;;;;;10095686;28;20045;-66
2024/02/15 16:58:46;;;;;;;4.38;1.40;;;14.70;99.90;;;;;;10094162;28;20074;-65
2024/02/15 17:03:37;;;;;;;2.00;1.35;;;14.70;99.90;;;;;;10078051;28;20083;-66
2024/02/15 17:08:27;;;;;;;4.35;1.63;;;14.70;99.90;;;;;;10095846;28;20025;-66
2024/02/15 17:13:19;;;;;;;4.38;1.95;;;14.70;99.90;;;;;;10097749;28;20044;-65
2024/02/15 17:18:09;;;;;;;2.58;1.60;;;14.70;99.90;;;;;;10099979;28;20025;-66
2024/02/15 17:23:00;;;;;;;5.30;1.60;;;14.70;99.90;;;;;;10094545;28;20115;-67
2024/02/15 17:27:51;;;;;;;3.10;1.50;;;14.70;99.90;;;;;;10092794;28;20037;-67
2024/02/15 17:32:43;;;;;;;2.92;1.58;;;14.70;99.90;;;;;;10089110;28;20056;-67
2024/02/15 17:37:34;;;;;;;4.85;1.50;;;14.70;99.90;;;;;;10084135;28;20575;-65
2024/02/15 17:42:25;;;;;;;99.43;49.28;;;14.70;99.90;;;;;;10102018;28;20092;-67
2024/02/15 17:47:15;;;;;;;182.35;90.70;;;14.70;99.90;;;;;;10107496;28;20029;-66
2024/02/15 17:52:06;;;;;;;57.25;29.92;;;14.70;99.90;;;;;;10094330;28;20044;-66
2024/02/15 17:56:57;;;;;;;24.13;12.85;;;14.70;99.90;;;;;;10094659;28;20467;-65
2024/02/15 18:01:48;;;;;;;16.25;8.32;;;14.70;99.90;;;;;;10095243;28;20068;-64
2024/02/15 18:06:39;;;;;;;11.55;4.90;;;14.70;99.90;;;;;;10093873;28;20115;-64
2024/02/15 18:11:30;;;;;;;9.50;4.13;;;14.70;99.90;;;;;;10095857;28;20107;-66
2024/02/15 18:16:21;;;;;;;4.55;3.22;;;14.70;99.90;;;;;;10105518;28;20037;-65
2024/02/15 18:21:12;;;;;;;7.78;3.33;;;14.70;99.90;;;;;;10100537;28;20048;-65
2024/02/15 18:26:02;;;;;;;9.05;4.85;;;14.70;99.90;;;;;;10100520;28;20044;-67
2024/02/15 18:30:53;;;;;;;6.95;3.38;;;14.70;99.90;;;;;;10101339;28;20120;-68
2024/02/15 18:35:47;;;;;;;6.85;2.90;;;14.70;99.90;;;;;;10088714;28;20037;-69
2024/02/15 18:40:38;;;;;;;5.97;2.72;;;14.70;99.90;;;;;;10094395;28;20029;-68
2024/02/15 18:45:30;;;;;;;6.95;3.35;;;14.70;99.90;;;;;;10085327;28;20128;-68
2024/02/15 18:50:23;;;;;;;7.05;3.33;;;14.70;99.90;;;;;;10099881;28;20039;-67
2024/02/15 18:55:13;;;;;;;7.32;3.35;;;14.70;99.90;;;;;;10097593;28;20041;-67
2024/02/15 19:00:04;;;;;;;8.60;3.78;;;14.70;99.90;;;;;;10087132;28;20123;-66
2024/02/15 19:04:55;;;;;;;9.90;4.47;;;14.70;99.90;;;;;;10080569;28;20033;-66
2024/02/15 19:09:46;;;;;;;7.47;4.28;;;14.70;99.90;;;;;;10085843;28;20025;-66
2024/02/15 19:14:38;;;;;;;9.73;4.50;;;14.70;99.90;;;;;;10078336;28;20044;-66
2024/02/15 19:19:29;;;;;;;9.80;3.88;;;14.70;99.90;;;;;;10098840;28;20490;-66
2024/02/15 19:24:20;;;;;;;11.93;5.40;;;14.70;99.90;;;;;;10100438;28;20028;-67
2024/02/15 19:29:23;;;;;;;11.13;4.72;;;14.60;99.90;;;;;;10097512;28;20123;-70
2024/02/15 19:34:15;;;;;;;13.00;5.07;;;14.60;99.90;;;;;;10074970;28;20589;-68
2024/02/15 19:39:09;;;;;;;9.70;5.45;;;14.60;99.90;;;;;;10080307;28;20021;-66
2024/02/15 19:44:01;;;;;;;7.27;4.40;;;14.60;99.90;;;;;;10079377;28;20525;-72
2024/02/15 19:48:52;;;;;;;6.82;4.43;;;14.60;99.90;;;;;;10078957;28;20027;-68
2024/02/15 19:53:43;;;;;;;11.10;5.35;;;14.60;99.90;;;;;;10083357;28;20400;-65
2024/02/15 19:58:33;;;;;;;13.18;6.40;;;14.50;99.90;;;;;;10093938;28;20032;-65
2024/02/15 20:03:27;;;;;;;13.30;6.68;;;14.50;99.90;;;;;;10096965;28;20406;-66
2024/02/15 20:08:18;;;;;;;9.20;5.43;;;14.50;99.90;;;;;;10095004;28;20040;-67
2024/02/15 20:13:09;;;;;;;8.65;4.28;;;14.50;99.90;;;;;;10096393;28;20047;-65
2024/02/15 20:17:59;;;;;;;13.90;7.18;;;14.50;99.90;;;;;;10096222;28;20021;-64
2024/02/15 20:22:50;;;;;;;10.40;6.05;;;14.50;99.90;;;;;;10094857;28;20532;-67
2024/02/15 20:27:41;;;;;;;8.77;5.35;;;14.50;99.90;;;;;;10073130;28;20048;-63
2024/02/15 20:32:32;;;;;;;10.68;6.25;;;14.40;99.90;;;;;;10095839;28;20449;-70
2024/02/15 20:37:23;;;;;;;10.45;5.45;;;14.40;99.90;;;;;;10093726;28;20033;-66
2024/02/15 20:42:15;;;;;;;77.63;38.72;;;14.40;99.90;;;;;;10094522;28;20029;-66
2024/02/15 20:47:11;;;;;;;138.88;62.38;;;14.50;99.90;;;;;;10096046;28;20018;-66
2024/02/15 20:52:02;;;;;;;47.25;22.55;;;14.50;99.90;;;;;;10099357;28;20533;-64
2024/02/15 20:56:53;;;;;;;16.98;9.10;;;14.50;99.90;;;;;;10095132;28;20105;-66
2024/02/15 21:01:44;;;;;;;9.52;5.38;;;14.30;99.90;;;;;;10095519;28;20060;-68
2024/02/15 21:06:36;;;;;;;9.63;4.85;;;14.40;99.90;;;;;;10098301;28;20047;-65
2024/02/15 21:11:27;;;;;;;9.25;4.63;;;14.40;99.90;;;;;;10093989;28;20090;-66
2024/02/15 21:16:19;;;;;;;9.25;4.85;;;14.30;99.90;;;;;;10094447;28;20037;-68
2024/02/15 21:21:10;;;;;;;8.75;4.53;;;14.40;99.90;;;;;;10093970;28;20364;-64
2024/02/15 21:26:01;;;;;;;7.03;4.63;;;14.30;99.90;;;;;;10094497;28;20132;-64
2024/02/15 21:30:52;;;;;;;5.95;4.47;;;14.30;99.90;;;;;;10076120;28;20028;-65
2024/02/15 21:35:43;;;;;;;6.00;3.92;;;14.30;99.90;;;;;;10094575;28;20041;-66
2024/02/15 21:40:34;;;;;;;8.15;4.22;;;14.30;99.90;;;;;;10091836;28;20070;-65
2024/02/15 21:45:25;;;;;;;69.63;35.72;;;14.30;99.90;;;;;;10093126;28;20033;-64
2024/02/15 21:50:15;;;;;;;28.52;15.75;;;14.30;99.90;;;;;;10084981;28;20037;-68
2024/02/15 21:55:07;;;;;;;11.60;5.85;;;14.30;99.90;;;;;;10092926;28;20041;-64
2024/02/15 21:59:58;;;;;;;10.80;5.18;;;14.20;99.90;;;;;;10089222;28;20009;-66
2024/02/15 22:04:48;;;;;;;7.28;4.28;;;14.20;99.90;;;;;;10094620;28;20120;-66
2024/02/15 22:09:39;;;;;;;9.32;4.75;;;14.20;99.90;;;;;;10100470;28;20530;-66
2024/02/15 22:14:33;;;;;;;10.80;5.13;;;14.20;99.90;;;;;;10101342;28;20040;-66
2024/02/15 22:19:24;;;;;;;5.68;4.00;;;14.20;99.90;;;;;;10082555;28;20521;-67
2024/02/15 22:24:14;;;;;;;7.78;4.97;;;14.10;99.90;;;;;;10101374;28;20112;-63
2024/02/15 22:29:05;;;;;;;6.07;3.58;;;14.10;99.90;;;;;;10100112;28;20049;-67
2024/02/15 22:33:56;;;;;;;8.15;4.82;;;14.10;99.90;;;;;;10100429;28;20129;-63
2024/02/15 22:38:47;;;;;;;7.10;4.47;;;14.10;99.90;;;;;;10100401;28;20025;-62
2024/02/15 22:43:39;;;;;;;7.50;4.28;;;14.10;99.90;;;;;;10099935;28;20078;-67
2024/02/15 22:48:29;;;;;;;5.60;3.58;;;14.10;99.90;;;;;;10099705;28;20025;-67
2024/02/15 22:53:20;;;;;;;10.95;4.38;;;14.10;99.90;;;;;;10099760;28;20505;-67
2024/02/15 22:58:11;;;;;;;7.30;4.15;;;14.00;99.90;;;;;;10097725;28;20502;-64
2024/02/15 23:03:02;;;;;;;8.40;4.22;;;14.00;99.90;;;;;;10099037;28;20025;-66
2024/02/15 23:07:53;;;;;;;9.02;4.32;;;14.00;99.90;;;;;;10097060;28;20116;-67
2024/02/15 23:12:44;;;;;;;6.47;3.85;;;14.00;99.90;;;;;;10101404;28;20120;-66
2024/02/15 23:17:34;;;;;;;8.32;4.60;;;14.00;99.90;;;;;;10097975;28;20025;-68
2024/02/15 23:22:25;;;;;;;7.43;3.75;;;13.90;99.90;;;;;;10094591;28;20033;-63
2024/02/15 23:27:16;;;;;;;7.15;4.90;;;13.90;99.90;;;;;;10098474;28;20044;-65
2024/02/15 23:32:07;;;;;;;6.90;4.20;;;13.90;99.90;;;;;;10098939;28;20029;-65
2024/02/15 23:42:07;;;;;;;10.18;3.97;;;13.90;99.90;;;;;;10098824;28;20051;-63
2024/02/15 23:46:58;;;;;;;7.72;4.78;;;13.80;99.90;;;;;;10097991;28;20517;-66
2024/02/15 23:51:49;;;;;;;8.57;4.60;;;13.80;99.90;;;;;;10097570;28;20025;-67
2024/02/15 23:56:40;;;;;;;6.03;3.45;;;13.80;99.90;;;;;;10096855;28;20441;-63
